• Join FlightAware (Why Join?)
  • Login
  • US Flag 
05:21AM EDT


 

Airport Tracker/Info


-or-


 

Live Flight TrackerFlight Track Log ✈ ASH3759 ✈ 27-Feb-2014 ✈ KMSP - KORD

Flight Track Log - Related Links

Times and Time Zones

All times are in EST time to prevent confusion due to time zone crossing. See the ASH3759 flight status page for this flight to view local times or setup timezone preferences in your user account.

Time Position Orientation Groundspeed Altitude Reporting Facility
EST Latitude Longitude Course Direction KTS MPH feet Rate Location/Type
06:16PM 44.9000 -93.2500 154° Southeast 156 180 2,300  Level Minneapolis TRACON
06:17PM 44.8892 -93.2983 252° West 182 209 3,400 2,040 Climbing Minneapolis Center
06:18PM 44.8772 -93.3853 259° West 226 260 6,000 2,520 Climbing Minneapolis Center
06:19PM 44.8256 -93.4367 215° Southwest 273 314 8,700 2,220 Climbing Minneapolis Center
06:20PM 44.7497 -93.3836 154° Southeast 312 359 10,700 1,920 Climbing Minneapolis Center
06:21PM 44.2217 -92.8978 154° Southeast  Level FlightAware Approximate
06:21PM 44.6508 -93.2900 146° Southeast 370 426 12,700  Level Minneapolis Center
06:22PM 44.5592 -93.2033 146° Southeast 404 465 14,500 1,800 Climbing Minneapolis Center
06:23PM 44.4625 -93.1133 146° Southeast 417 480 16,500 1,680 Climbing Minneapolis Center
06:24PM 44.3633 -93.0197 146° Southeast 432 497 18,100 1,680 Climbing Minneapolis Center
06:25PM 44.2456 -92.8850 141° Southeast 457 526 20,100 1,740 Climbing Minneapolis Center
06:26PM 44.1472 -92.7697 140° Southeast 462 532 21,700 1,500 Climbing Minneapolis Center
06:27PM 44.0464 -92.6503 140° Southeast 474 545 23,200 1,320 Climbing Minneapolis Center
06:28PM 43.9422 -92.5300 140° Southeast 485 558 24,500 1,200 Climbing Minneapolis Center
06:29PM 43.8375 -92.4081 140° Southeast 490 564 25,700 1,200 Climbing Minneapolis Center
06:30PM 43.7211 -92.2703 139° Southeast 506 582 27,000 1,080 Climbing Minneapolis Center
06:31PM 43.6136 -92.1456 140° Southeast 506 582 28,000 960 Climbing Minneapolis Center
06:32PM 43.5031 -92.0189 140° Southeast 511 588 29,100 1,140 Climbing Minneapolis Center
06:33PM 43.3706 -91.8711 141° Southeast 512 589 30,400 900 Climbing Minneapolis Center
06:34PM 43.2594 -91.7436 140° Southeast 514 592 31,000 240 Climbing Minneapolis Center
06:35PM 43.1622 -91.5903 131° Southeast 541 623 31,000  Level Minneapolis Center
06:36PM 43.0972 -91.4019 115° Southeast 544 626 31,000  Level Minneapolis Center
06:37PM 43.0317 -91.2156 116° Southeast 544 626 31,000  Level Minneapolis Center
06:38PM 42.9667 -91.0289 115° Southeast 544 626 31,000  Level Minneapolis Center
06:39PM 42.9017 -90.8425 115° Southeast 544 626 31,000  Level Minneapolis Center
06:40PM 42.8228 -90.6217 116° Southeast 543 625 31,000 -540 Level Minneapolis Center
06:41PM 42.7575 -90.4369 116° Southeast 543 625 30,000 -1,260 Descending Minneapolis Center
06:42PM 42.6853 -90.2400 116° Southeast 543 625 28,500 -1,740 Descending Minneapolis Center
06:44PM 42.6022 -90.0136 116° Southeast 523 602 25,700 -1,800 Descending Chicago Center
06:45PM 42.5322 -89.8153 116° Southeast 507 583 24,000 -1,860 Descending Chicago Center
06:46PM 42.5158 -89.6350 97° East 496 571 21,900 -2,280 Descending Chicago Center
06:47PM 42.5119 -89.4558 92° East 482 555 19,400 -2,160 Descending Chicago Center
06:48PM 42.5089 -89.2828 91° East 468 539 17,500 -2,040 Descending Chicago Center
06:49PM 42.5067 -89.0767 91° East 462 532 15,200 -2,040 Descending Chicago Center
06:50PM 42.4981 -88.9125 94° East 448 516 13,300 -1,800 Descending Chicago Center
06:51PM 42.4542 -88.7636 112° Southeast 429 494 11,500 -1,140 Descending Chicago Center
06:52PM 42.4133 -88.6228 111° Southeast 408 470 11,000 -300 Descending Chicago Center
06:53PM 42.3722 -88.4917 113° Southeast 386 444 11,000  Level Chicago Center
06:54PM 42.3103 -88.3400 119° Southeast 399 459 11,000 -480 Level Chicago Center
06:55PM 42.2447 -88.2306 129° Southeast 378 435 10,000 -540 Descending Chicago Center
06:56PM 42.1617 -88.1317 139° Southeast 372 428 10,000 -240 Level Chicago Center
06:57PM 42.1000 -88.0500 135° Southeast 320 368 9,600 -1,020 Descending Chicago TRACON
06:58PM 42.0500 -88.0000 143° Southeast 300 345 8,300 -1,320 Descending Chicago TRACON
06:59PM 41.9833 -87.9167 137° Southeast 312 359 7,100 -660 Descending Chicago TRACON
07:00PM 41.9333 -87.8500 135° Southeast 259 298 7,000 -600 Descending Chicago TRACON
07:01PM 41.8833 -87.7833 135° Southeast 233 268 6,000 -1,200 Descending Chicago TRACON
07:02PM 41.9000 -87.7167 71° East 225 259 4,600 -1,620 Descending Chicago TRACON
07:03PM 41.9500 -87.7500 334° Northwest 207 238 2,800 -1,440 Descending Chicago TRACON
07:04PM 41.9667 -87.8167 289° West 174 200 1,900 -900 Descending Chicago TRACON
07:05PM 41.9667 -87.8667 270° West 132 152 1,100 -840 Descending Chicago TRACON